Time;durP1;ratioP1;P1;durP2;ratioP2;P2;SDS_P1;SDS_P2;PMS_P1;PMS_P2;Temp;Humidity;BMP_temperature;BMP_pressure;BME280_temperature;BME280_humidity;BME280_pressure;Samples;Min_cycle;Max_cycle;Signal;HPM_P1;HPM_P2
2024/02/20 00:00:06;;;;;;;4.38;1.40;;;;;;;4.98;100.00;96727.63;2091345;28;20052;-58
2024/02/20 00:01:13;;;;;;;3.30;1.60;;;;;;;4.98;100.00;96732.75;2091469;28;20473;-58
2024/02/20 00:02:15;;;;;;;3.33;1.63;;;;;;;4.98;100.00;96737.91;2091060;28;20057;-58
2024/02/20 00:03:16;;;;;;;2.60;1.63;;;;;;;4.95;100.00;96731.09;2090812;28;20059;-57
2024/02/20 00:04:19;;;;;;;3.35;1.65;;;;;;;4.96;100.00;96729.34;2090759;28;20500;-58
2024/02/20 00:05:21;;;;;;;3.55;1.58;;;;;;;4.95;100.00;96731.09;2090818;28;20045;-59
2024/02/20 00:06:22;;;;;;;5.90;1.50;;;;;;;4.93;100.00;96727.66;2090632;28;20036;-58
2024/02/20 00:07:23;;;;;;;2.47;1.00;;;;;;;4.92;100.00;96725.97;2090707;28;20052;-58
2024/02/20 00:08:24;;;;;;;3.50;1.40;;;;;;;4.91;100.00;96733.72;2090874;28;20052;-58
2024/02/20 00:09:25;;;;;;;4.18;1.40;;;;;;;4.90;100.00;96727.72;2090698;28;20056;-57
2024/02/20 00:10:27;;;;;;;2.70;1.23;;;;;;;4.90;100.00;96729.44;2090752;28;20064;-57
2024/02/20 00:11:31;;;;;;;3.40;1.30;;;;;;;4.90;100.00;96727.72;2090892;28;20036;-58
2024/02/20 00:12:33;;;;;;;3.53;1.02;;;;;;;4.90;100.00;96726.88;2090726;28;20045;-57
2024/02/20 00:13:34;;;;;;;2.83;1.50;;;;;;;4.87;100.00;96720.03;2090698;28;20040;-57
2024/02/20 00:14:35;;;;;;;2.22;1.10;;;;;;;4.87;100.00;96730.34;2090330;28;20053;-57
2024/02/20 00:15:36;;;;;;;4.30;1.67;;;;;;;4.88;100.00;96726.03;2090698;28;20032;-58
2024/02/20 00:16:37;;;;;;;3.67;1.30;;;;;;;4.88;100.00;96720.88;2091007;28;20033;-57
2024/02/20 00:17:38;;;;;;;3.10;1.80;;;;;;;4.86;100.00;96721.78;2090807;28;20040;-57
2024/02/20 00:18:39;;;;;;;3.53;1.40;;;;;;;4.87;100.00;96722.63;2090903;28;20033;-57
2024/02/20 00:19:40;;;;;;;5.93;1.70;;;;;;;4.88;100.00;96726.03;2090727;28;20055;-57
2024/02/20 00:20:44;;;;;;;3.50;1.63;;;;;;;4.86;100.00;96724.34;2090495;28;20118;-57
2024/02/20 00:21:45;;;;;;;3.53;1.48;;;;;;;4.84;100.00;96720.94;2090587;28;20412;-57
2024/02/20 00:22:46;;;;;;;3.67;1.48;;;;;;;4.88;100.00;96723.47;2090705;28;20120;-57
2024/02/20 00:23:47;;;;;;;5.47;1.85;;;;;;;4.86;100.00;96721.78;2090662;28;20138;-57
2024/02/20 00:24:49;;;;;;;3.75;1.80;;;;;;;4.88;100.00;96716.59;2090668;28;20401;-56
2024/02/20 00:25:50;;;;;;;4.82;2.10;;;;;;;4.88;100.00;96724.31;2090634;28;20056;-57
2024/02/20 00:26:51;;;;;;;5.30;2.70;;;;;;;4.88;100.00;96721.72;2090671;28;20064;-57
2024/02/20 00:27:52;;;;;;;7.03;2.65;;;;;;;4.89;100.00;96720.84;2090754;28;20043;-57
2024/02/20 00:28:53;;;;;;;4.75;2.45;;;;;;;4.89;100.00;96720.84;2090893;28;20262;-57
2024/02/20 00:29:54;;;;;;;5.80;2.53;;;;;;;4.91;100.00;96719.09;2090328;28;20054;-55
2024/02/20 00:30:55;;;;;;;4.47;2.50;;;;;;;4.91;100.00;96719.09;2090676;28;20037;-57
2024/02/20 00:31:56;;;;;;;6.75;2.63;;;;;;;4.93;100.00;96717.38;2090449;28;20404;-57
2024/02/20 00:32:58;;;;;;;7.15;3.35;;;;;;;4.93;100.00;96716.53;2091177;28;20056;-56
2024/02/20 00:34:02;;;;;;;7.15;3.13;;;;;;;4.93;100.00;96714.81;2090836;28;20040;-57
2024/02/20 00:35:04;;;;;;;6.60;3.13;;;;;;;4.94;100.00;96713.06;2090626;28;20048;-57
2024/02/20 00:36:05;;;;;;;8.43;3.08;;;;;;;4.94;100.00;96716.50;2090517;28;20045;-57
2024/02/20 00:37:06;;;;;;;7.88;3.30;;;;;;;4.93;100.00;96706.25;2090335;28;20041;-57
2024/02/20 00:38:07;;;;;;;6.53;3.50;;;;;;;4.93;100.00;96711.38;2090332;28;20049;-57
2024/02/20 00:39:08;;;;;;;10.23;3.63;;;;;;;4.93;100.00;96707.09;2090636;28;20477;-57
2024/02/20 00:40:10;;;;;;;7.82;2.90;;;;;;;4.93;100.00;96711.38;2090346;28;20028;-56
2024/02/20 00:41:11;;;;;;;6.18;3.30;;;;;;;4.92;100.00;96700.25;2090161;28;20056;-56
2024/02/20 00:42:12;;;;;;;8.70;3.25;;;;;;;4.91;100.00;96706.25;2090225;28;20043;-56
2024/02/20 00:43:13;;;;;;;6.93;2.95;;;;;;;4.92;100.00;96709.66;2090896;28;20436;-56
2024/02/20 00:44:14;;;;;;;8.00;4.07;;;;;;;4.90;100.00;96707.13;2090538;28;20077;-56
2024/02/20 00:45:16;;;;;;;9.18;4.43;;;;;;;4.92;100.00;96707.97;2090561;28;20053;-57
2024/02/20 00:46:20;;;;;;;8.48;3.78;;;;;;;4.92;100.00;96705.38;2090444;28;20049;-56
2024/02/20 00:47:21;;;;;;;8.30;4.28;;;;;;;4.96;100.00;96703.63;2090476;28;20048;-56
2024/02/20 00:48:22;;;;;;;6.20;3.90;;;;;;;4.94;100.00;96698.47;2090197;28;20405;-56
2024/02/20 00:49:24;;;;;;;6.90;3.63;;;;;;;4.95;100.00;96700.19;2090526;28;20047;-56
2024/02/20 00:50:25;;;;;;;11.00;3.45;;;;;;;4.96;100.00;96704.47;2090431;28;20052;-56
2024/02/20 00:51:27;;;;;;;8.48;4.10;;;;;;;4.95;100.00;96705.34;2090452;28;20397;-56
2024/02/20 00:52:28;;;;;;;7.95;3.78;;;;;;;4.94;100.00;96693.31;2090298;28;20048;-56
2024/02/20 00:53:29;;;;;;;9.32;4.00;;;;;;;4.93;100.00;96699.34;2090589;28;20060;-55
2024/02/20 00:54:30;;;;;;;8.70;3.80;;;;;;;4.94;100.00;96700.19;2090511;28;20047;-56
2024/02/20 00:55:31;;;;;;;10.07;3.95;;;;;;;4.93;100.00;96701.94;2090904;28;20056;-56
2024/02/20 00:56:32;;;;;;;7.35;3.50;;;;;;;4.94;100.00;96702.78;2090468;28;20492;-55
2024/02/20 00:57:33;;;;;;;9.85;3.88;;;;;;;4.92;100.00;96695.09;2090342;28;20033;-56
2024/02/20 00:58:34;;;;;;;7.32;4.10;;;;;;;4.94;100.00;96700.19;2090461;28;20072;-55
2024/02/20 00:59:36;;;;;;;7.25;3.85;;;;;;;4.91;100.00;96698.53;2090672;28;20032;-56
2024/02/20 01:00:37;;;;;;;8.85;4.60;;;;;;;4.92;100.00;96700.25;2090411;28;20059;-55
2024/02/20 01:01:38;;;;;;;10.07;3.92;;;;;;;4.91;100.00;96700.25;2090438;28;20041;-56
2024/02/20 01:02:42;;;;;;;15.75;4.18;;;;;;;4.90;100.00;96704.56;2090438;28;20075;-55
2024/02/20 01:03:43;;;;;;;5.60;3.30;;;;;;;4.89;100.00;96700.25;2052365;28;1093471;-55
2024/02/20 01:04:44;;;;;;;10.77;4.50;;;;;;;4.88;100.00;96693.41;2090756;28;20057;-55
2024/02/20 01:05:45;;;;;;;12.57;4.10;;;;;;;4.90;100.00;96701.97;2091429;28;20406;-56
2024/02/20 01:06:46;;;;;;;7.70;3.90;;;;;;;4.89;100.00;96691.69;2090688;28;20060;-55
2024/02/20 01:07:47;;;;;;;5.55;3.13;;;;;;;4.88;100.00;96692.56;2090904;28;20048;-55
2024/02/20 01:08:48;;;;;;;8.30;3.63;;;;;;;4.86;100.00;96690.00;2091099;28;20416;-55
2024/02/20 01:09:50;;;;;;;8.82;3.63;;;;;;;4.84;100.00;96691.78;2090884;28;20040;-55
2024/02/20 01:10:51;;;;;;;7.93;3.25;;;;;;;4.80;100.00;96690.94;2090588;28;20051;-55
2024/02/20 01:11:52;;;;;;;6.60;3.20;;;;;;;4.81;100.00;96692.66;2090267;28;20523;-55
2024/02/20 01:12:54;;;;;;;6.32;2.92;;;;;;;4.81;100.00;96686.66;2089933;28;20048;-55
2024/02/20 01:13:55;;;;;;;6.03;3.33;;;;;;;4.80;100.00;96690.09;2090793;28;20496;-56
2024/02/20 01:14:57;;;;;;;7.43;2.70;;;;;;;4.79;100.00;96691.84;2091221;28;20044;-55
2024/02/20 01:15:58;;;;;;;7.20;3.30;;;;;;;4.79;100.00;96698.72;2090748;28;20037;-55
2024/02/20 01:17:00;;;;;;;9.23;3.25;;;;;;;4.79;100.00;96694.41;2090883;28;20481;-55
2024/02/20 01:18:01;;;;;;;8.80;3.53;;;;;;;4.78;100.00;96696.97;2090703;28;20051;-55
2024/02/20 01:19:02;;;;;;;6.47;2.72;;;;;;;4.77;100.00;96696.13;2091019;28;20048;-56
2024/02/20 01:20:04;;;;;;;7.18;2.83;;;;;;;4.76;100.00;96691.03;2091283;28;20436;-55
2024/02/20 01:21:05;;;;;;;6.60;2.90;;;;;;;4.77;100.00;96695.28;2090684;28;20045;-55
2024/02/20 01:22:06;;;;;;;5.57;2.97;;;;;;;4.75;100.00;96697.88;2090687;28;20440;-55
2024/02/20 01:23:08;;;;;;;8.18;3.72;;;;;;;4.76;100.00;96693.59;2090644;28;20400;-55
2024/02/20 01:24:09;;;;;;;9.43;3.00;;;;;;;4.74;100.00;96691.03;2090716;28;20055;-55
2024/02/20 01:25:10;;;;;;;7.13;3.40;;;;;;;4.72;100.00;96690.19;2090808;28;20048;-55
2024/02/20 01:26:11;;;;;;;5.95;3.08;;;;;;;4.74;100.00;96691.03;2090927;28;20037;-55
2024/02/20 01:27:14;;;;;;;5.90;2.97;;;;;;;4.72;100.00;96691.94;2090510;28;20045;-55
2024/02/20 01:28:21;;;;;;;7.72;3.28;;;;;;;4.71;100.00;96688.50;2090626;28;20048;-55
2024/02/20 01:29:22;;;;;;;7.22;2.70;;;;;;;4.72;100.00;96689.34;2090350;28;20040;-55
2024/02/20 01:30:24;;;;;;;8.35;3.13;;;;;;;4.71;100.00;96691.09;2090484;28;20488;-55
2024/02/20 01:31:25;;;;;;;6.78;3.10;;;;;;;4.72;100.00;96699.66;2090725;28;20040;-55
2024/02/20 01:32:26;;;;;;;5.80;3.25;;;;;;;4.73;100.00;96688.47;2089993;28;20056;-55
2024/02/20 01:33:27;;;;;;;6.93;2.67;;;;;;;4.73;100.00;96688.47;2090278;28;20060;-55
2024/02/20 01:34:28;;;;;;;10.13;3.33;;;;;;;4.74;100.00;96690.19;2090770;28;20044;-55
2024/02/20 01:35:29;;;;;;;7.20;2.88;;;;;;;4.75;100.00;96686.75;2090582;28;20053;-55
2024/02/20 01:36:30;;;;;;;8.23;3.35;;;;;;;4.75;100.00;96686.75;2090534;28;20040;-55
2024/02/20 01:37:31;;;;;;;7.28;2.90;;;;;;;4.74;100.00;96691.03;2090517;28;20048;-55
2024/02/20 01:38:33;;;;;;;6.00;3.38;;;;;;;4.73;100.00;96689.34;2090713;28;20481;-56
2024/02/20 01:39:34;;;;;;;7.75;3.15;;;;;;;4.76;100.00;96693.59;2090516;28;20028;-55
2024/02/20 01:40:38;;;;;;;7.45;2.92;;;;;;;4.74;100.00;96685.88;2090702;28;20048;-56
2024/02/20 01:41:39;;;;;;;6.30;3.20;;;;;;;4.73;100.00;96688.47;2090441;28;20052;-56
2024/02/20 01:42:40;;;;;;;7.57;3.55;;;;;;;4.71;100.00;96685.09;2090493;28;20432;-56
2024/02/20 01:43:41;;;;;;;7.63;3.55;;;;;;;4.72;100.00;96690.19;2090029;28;20040;-55
2024/02/20 01:44:42;;;;;;;7.38;2.78;;;;;;;4.72;100.00;96685.06;2090479;28;20052;-55
2024/02/20 01:45:45;;;;;;;7.63;3.38;;;;;;;4.70;100.00;96691.94;2090786;28;20397;-55
2024/02/20 01:46:46;;;;;;;4.90;2.72;;;;;;;4.69;100.00;96690.25;2090132;28;20461;-55
2024/02/20 01:47:47;;;;;;;7.30;3.30;;;;;;;4.68;100.00;96688.56;2081892;28;20042;-55
2024/02/20 01:48:51;;;;;;;6.32;3.10;;;;;;;4.67;100.00;96691.13;2082502;28;20056;-55
2024/02/20 01:49:52;;;;;;;6.82;3.22;;;;;;;4.67;100.00;96696.28;2090060;28;20041;-55
2024/02/20 01:50:53;;;;;;;7.70;3.72;;;;;;;4.64;100.00;96698.00;2089857;28;20051;-55
2024/02/20 01:51:54;;;;;;;5.95;3.03;;;;;;;4.60;100.00;96691.22;2081635;28;20048;-55
2024/02/20 01:52:55;;;;;;;9.80;3.88;;;;;;;4.58;100.00;96692.09;2090349;28;20052;-56
2024/02/20 01:53:56;;;;;;;8.77;3.63;;;;;;;4.55;100.00;96687.00;2090265;28;20540;-56
2024/02/20 01:55:00;;;;;;;9.65;3.75;;;;;;;4.54;100.00;96688.69;2081750;28;20034;-55
2024/02/20 01:56:01;;;;;;;7.53;3.95;;;;;;;4.53;100.00;96684.44;2081897;28;20048;-55
2024/02/20 01:57:03;;;;;;;6.97;3.60;;;;;;;4.51;100.00;96688.75;2082114;28;20045;-56
2024/02/20 01:58:04;;;;;;;6.72;3.53;;;;;;;4.49;100.00;96685.38;2089927;28;20037;-55
2024/02/20 01:59:05;;;;;;;11.40;4.43;;;;;;;4.44;100.00;96679.41;2081711;28;20048;-55
2024/02/20 02:00:07;;;;;;;6.72;3.83;;;;;;;4.46;100.00;96685.38;2081647;28;20042;-55
2024/02/20 02:01:13;;;;;;;8.27;3.90;;;;;;;4.46;100.00;96677.66;2089983;28;20485;-56
2024/02/20 02:02:14;;;;;;;10.75;4.55;;;;;;;4.46;100.00;96680.22;2090303;28;20049;-55
2024/02/20 02:03:15;;;;;;;9.38;4.10;;;;;;;4.50;100.00;96686.22;2090235;28;20044;-55
2024/02/20 02:04:16;;;;;;;8.50;4.68;;;;;;;4.50;100.00;96675.94;2090546;28;20045;-55
2024/02/20 02:05:19;;;;;;;8.88;4.05;;;;;;;4.52;100.00;96680.19;2090401;28;20055;-55
2024/02/20 02:06:29;;;;;;;8.85;4.47;;;;;;;4.53;100.00;96687.00;2090313;28;20135;-56
2024/02/20 02:07:30;;;;;;;7.80;4.35;;;;;;;4.54;100.00;96681.00;2090377;28;20060;-55
2024/02/20 02:08:31;;;;;;;8.27;4.07;;;;;;;4.56;100.00;96688.69;2090922;28;20056;-55
2024/02/20 02:09:32;;;;;;;8.27;4.38;;;;;;;4.57;100.00;96686.13;2090932;28;20063;-56
2024/02/20 02:10:33;;;;;;;7.03;3.83;;;;;;;4.57;100.00;96683.53;2091146;28;20055;-55
2024/02/20 02:11:36;;;;;;;9.85;4.85;;;;;;;4.59;100.00;96680.94;2091630;28;20053;-55
2024/02/20 02:12:37;;;;;;;8.80;4.32;;;;;;;4.59;100.00;96688.66;2090443;28;20536;-56
2024/02/20 02:13:38;;;;;;;7.30;4.38;;;;;;;4.61;100.00;96685.19;2090327;28;20053;-55
2024/02/20 02:14:45;;;;;;;9.02;4.55;;;;;;;4.60;100.00;96686.06;2090662;28;20037;-55
2024/02/20 02:15:47;;;;;;;7.22;4.00;;;;;;;4.63;100.00;96690.34;2090331;28;20477;-56
2024/02/20 02:16:48;;;;;;;8.48;4.35;;;;;;;4.64;100.00;96697.16;2089735;28;20036;-55
2024/02/20 02:17:49;;;;;;;10.48;4.47;;;;;;;4.64;100.00;96687.72;2089492;28;20053;-55
2024/02/20 02:18:50;;;;;;;7.00;3.65;;;;;;;4.66;100.00;96690.28;2090135;28;20044;-55
2024/02/20 02:19:51;;;;;;;8.38;4.35;;;;;;;4.68;100.00;96695.41;2089969;28;20040;-55
2024/02/20 02:20:53;;;;;;;7.00;3.83;;;;;;;4.69;100.00;96686.81;2090430;28;20033;-55
2024/02/20 02:21:54;;;;;;;7.65;4.20;;;;;;;4.71;100.00;96690.25;2090190;28;20041;-55
2024/02/20 02:22:55;;;;;;;10.40;4.93;;;;;;;4.73;100.00;96694.50;2090182;28;20049;-55
2024/02/20 02:23:56;;;;;;;8.23;4.45;;;;;;;4.74;100.00;96690.19;2090179;28;20477;-55
2024/02/20 02:24:57;;;;;;;9.57;4.15;;;;;;;4.75;100.00;96687.59;2090218;28;20028;-56
2024/02/20 02:25:58;;;;;;;7.25;3.38;;;;;;;4.76;100.00;96693.59;2090259;28;20037;-56
2024/02/20 02:27:00;;;;;;;8.98;4.03;;;;;;;4.78;100.00;96692.69;2090305;28;20484;-55
2024/02/20 02:28:01;;;;;;;9.20;4.05;;;;;;;4.79;100.00;96685.84;2090376;28;20055;-56
2024/02/20 02:29:03;;;;;;;7.88;3.60;;;;;;;4.81;100.00;96684.06;2089512;28;20029;-55
2024/02/20 02:30:05;;;;;;;5.70;3.20;;;;;;;4.82;100.00;96690.94;2090381;28;20473;-55
2024/02/20 02:31:06;;;;;;;8.15;3.97;;;;;;;4.83;100.00;96700.34;2090185;28;20060;-55
2024/02/20 02:32:08;;;;;;;7.70;3.50;;;;;;;4.85;100.00;96693.47;2090201;28;20067;-55
2024/02/20 02:33:09;;;;;;;7.55;3.47;;;;;;;4.84;100.00;96689.19;2089716;28;20467;-55
2024/02/20 02:34:11;;;;;;;6.40;3.80;;;;;;;4.85;100.00;96689.16;2089338;28;20037;-55
2024/02/20 02:35:12;;;;;;;6.05;3.47;;;;;;;4.85;100.00;96696.88;2089070;28;20044;-55
2024/02/20 02:36:14;;;;;;;6.20;3.53;;;;;;;4.82;100.00;96688.38;2089914;28;20477;-55
2024/02/20 02:37:15;;;;;;;6.30;4.07;;;;;;;4.86;100.00;96692.59;2089935;28;20465;-55
2024/02/20 02:38:16;;;;;;;9.15;3.75;;;;;;;4.86;100.00;96697.72;2088960;28;20049;-55
2024/02/20 02:39:17;;;;;;;7.03;3.47;;;;;;;4.85;100.00;96694.31;2090153;28;20050;-55
2024/02/20 02:40:18;;;;;;;8.43;3.97;;;;;;;4.89;100.00;96696.84;2089835;28;20064;-55
2024/02/20 02:41:21;;;;;;;8.55;3.58;;;;;;;4.90;100.00;96691.69;2090079;28;20037;-55
2024/02/20 02:42:22;;;;;;;9.07;3.53;;;;;;;4.91;100.00;96692.53;2090067;28;20040;-55
2024/02/20 02:43:23;;;;;;;8.25;4.05;;;;;;;4.91;100.00;96695.09;2090209;28;20052;-55
2024/02/20 02:44:24;;;;;;;8.77;3.35;;;;;;;4.93;100.00;96695.94;2089747;28;20060;-56
2024/02/20 02:45:31;;;;;;;5.18;3.00;;;;;;;4.94;100.00;96687.34;2089523;28;20071;-55
2024/02/20 02:46:32;;;;;;;7.78;3.55;;;;;;;4.95;100.00;96694.19;2089543;28;20476;-55
2024/02/20 02:47:33;;;;;;;6.35;3.47;;;;;;;4.93;100.00;96685.66;2090040;28;20063;-55
2024/02/20 02:48:34;;;;;;;8.65;3.97;;;;;;;4.92;100.00;96694.22;2090496;28;20401;-55
2024/02/20 02:49:35;;;;;;;7.80;3.45;;;;;;;4.93;100.00;96691.63;2090150;28;20056;-56
2024/02/20 02:50:36;;;;;;;9.40;3.53;;;;;;;4.94;100.00;96689.91;2090528;28;20063;-55
2024/02/20 02:51:37;;;;;;;6.80;3.35;;;;;;;4.95;100.00;96691.63;2090124;28;20651;-55
2024/02/20 02:52:40;;;;;;;7.35;3.53;;;;;;;4.95;100.00;96689.91;2090214;28;20044;-55
2024/02/20 02:53:41;;;;;;;8.55;3.63;;;;;;;4.94;100.00;96690.75;2090110;28;20060;-55
2024/02/20 02:54:42;;;;;;;7.22;4.05;;;;;;;4.98;100.00;96689.84;2090080;28;20511;-55
2024/02/20 02:55:43;;;;;;;5.50;3.30;;;;;;;4.96;100.00;96688.16;2090101;28;20044;-55
2024/02/20 02:56:45;;;;;;;8.35;3.50;;;;;;;4.96;100.00;96689.00;2090050;28;20053;-55
2024/02/20 02:57:46;;;;;;;6.78;2.65;;;;;;;4.96;100.00;96688.16;2090045;28;20045;-55
2024/02/20 02:58:47;;;;;;;7.15;3.80;;;;;;;4.96;100.00;96695.91;2089917;28;20049;-55
2024/02/20 02:59:48;;;;;;;6.10;3.40;;;;;;;4.95;100.00;96689.91;2090471;28;20041;-55
2024/02/20 03:00:49;;;;;;;9.23;3.33;;;;;;;4.98;100.00;96694.16;2090129;28;20040;-55
2024/02/20 03:01:50;;;;;;;5.30;2.25;;;;;;;4.96;100.00;96693.31;2090507;28;20408;-55
2024/02/20 03:02:51;;;;;;;6.65;3.53;;;;;;;4.95;100.00;96696.78;2090139;28;20040;-55
2024/02/20 03:03:52;;;;;;;4.95;2.65;;;;;;;4.95;100.00;96694.19;2090493;28;20052;-55
2024/02/20 03:04:55;;;;;;;5.88;2.72;;;;;;;4.97;100.00;96690.75;2089989;28;20412;-55
2024/02/20 03:05:57;;;;;;;6.03;3.15;;;;;;;4.96;100.00;96691.59;2089341;28;20385;-56
2024/02/20 03:06:58;;;;;;;6.78;3.30;;;;;;;4.98;100.00;96705.28;2089405;28;20420;-55
2024/02/20 03:07:59;;;;;;;8.10;3.78;;;;;;;4.99;100.00;96706.13;2090058;28;20068;-55
2024/02/20 03:09:00;;;;;;;7.28;3.22;;;;;;;5.00;100.00;96693.25;2089618;28;20060;-55
2024/02/20 03:10:02;;;;;;;7.32;3.70;;;;;;;4.99;100.00;96701.84;2090567;28;20056;-55
2024/02/20 03:11:07;;;;;;;8.00;3.53;;;;;;;5.02;100.00;96706.09;2090068;28;20033;-55
2024/02/20 03:12:08;;;;;;;5.70;2.75;;;;;;;5.03;100.00;96700.94;2089945;28;20040;-55
2024/02/20 03:13:09;;;;;;;8.60;3.97;;;;;;;5.01;100.00;96705.25;2089959;28;20045;-55
2024/02/20 03:14:10;;;;;;;8.02;3.10;;;;;;;4.99;100.00;96699.25;2090001;28;20025;-55
2024/02/20 03:15:11;;;;;;;6.75;3.50;;;;;;;5.03;100.00;96705.25;2090060;28;20049;-55
2024/02/20 03:16:13;;;;;;;5.75;2.75;;;;;;;5.02;100.00;96703.53;2089995;28;20508;-55
2024/02/20 03:17:14;;;;;;;4.88;3.13;;;;;;;5.00;100.00;96702.72;2089973;28;20389;-55
2024/02/20 03:18:15;;;;;;;6.13;3.10;;;;;;;5.04;100.00;96712.09;2090023;28;20040;-55
2024/02/20 03:19:16;;;;;;;7.05;3.13;;;;;;;5.02;100.00;96700.94;2090098;28;20143;-55
2024/02/20 03:20:19;;;;;;;5.57;3.08;;;;;;;5.02;100.00;96696.66;2089938;28;20051;-55
2024/02/20 03:21:20;;;;;;;5.47;2.60;;;;;;;5.04;100.00;96707.78;2089920;28;20041;-55
2024/02/20 03:22:22;;;;;;;6.72;2.85;;;;;;;5.04;100.00;96710.34;2089542;28;20048;-55
2024/02/20 03:23:24;;;;;;;7.18;2.92;;;;;;;5.03;100.00;96707.81;2090068;28;20131;-56
2024/02/20 03:24:25;;;;;;;6.10;3.00;;;;;;;5.01;100.00;96715.53;2089953;28;20029;-55
2024/02/20 03:25:28;;;;;;;5.88;3.00;;;;;;;5.02;100.00;96711.25;2089959;28;20041;-55
2024/02/20 03:26:29;;;;;;;5.22;2.85;;;;;;;5.03;100.00;96707.81;2089946;28;20044;-55
2024/02/20 03:27:31;;;;;;;8.43;3.40;;;;;;;5.01;100.00;96707.81;2090355;28;20060;-55
2024/02/20 03:28:32;;;;;;;5.20;3.05;;;;;;;4.99;100.00;96709.56;2089338;28;20049;-55
2024/02/20 03:29:33;;;;;;;5.07;2.60;;;;;;;4.97;100.00;96706.19;2089989;28;20481;-55
2024/02/20 03:30:34;;;;;;;8.23;3.40;;;;;;;4.98;100.00;96714.75;2090374;28;20045;-55
2024/02/20 03:31:36;;;;;;;6.97;3.05;;;;;;;4.96;100.00;96711.34;2090198;28;20044;-55
2024/02/20 03:32:37;;;;;;;6.35;3.28;;;;;;;4.96;100.00;96716.50;2089784;28;20484;-56
2024/02/20 03:33:38;;;;;;;8.25;2.70;;;;;;;4.94;100.00;96715.66;2089999;28;20060;-56
2024/02/20 03:34:39;;;;;;;6.65;3.25;;;;;;;4.93;100.00;96722.53;2090414;28;20068;-55
2024/02/20 03:35:40;;;;;;;4.45;2.70;;;;;;;4.95;100.00;96719.94;2090374;28;20056;-56
2024/02/20 03:36:42;;;;;;;7.55;2.72;;;;;;;4.95;100.00;96715.63;2089896;28;20057;-55
2024/02/20 03:37:43;;;;;;;8.98;3.83;;;;;;;4.98;100.00;96720.75;2089900;28;20060;-55
2024/02/20 03:38:44;;;;;;;4.88;3.17;;;;;;;4.99;100.00;96727.59;2090057;28;20492;-55
2024/02/20 03:39:46;;;;;;;8.85;3.38;;;;;;;4.98;100.00;96718.16;2089911;28;20044;-55
2024/02/20 03:40:47;;;;;;;4.90;3.00;;;;;;;4.98;100.00;96725.88;2089558;28;20060;-55
2024/02/20 03:41:48;;;;;;;5.50;2.92;;;;;;;4.98;100.00;96720.75;2089615;28;20401;-55
2024/02/20 03:42:49;;;;;;;6.22;3.00;;;;;;;5.00;100.00;96726.72;2089612;28;20040;-55
2024/02/20 03:43:50;;;;;;;6.95;3.22;;;;;;;4.99;100.00;96727.59;2089832;28;20500;-55
2024/02/20 03:44:51;;;;;;;5.97;3.08;;;;;;;4.99;100.00;96726.72;2089697;28;20036;-55
2024/02/20 03:45:52;;;;;;;8.48;3.13;;;;;;;4.98;100.00;96723.31;2089692;28;20089;-55
2024/02/20 03:46:54;;;;;;;7.47;3.35;;;;;;;4.99;100.00;96721.59;2089568;28;20045;-54
2024/02/20 03:47:55;;;;;;;6.85;3.10;;;;;;;4.99;100.00;96725.00;2089252;28;20049;-54
2024/02/20 03:48:57;;;;;;;6.47;2.72;;;;;;;4.97;100.00;96721.63;2089815;28;20399;-55
2024/02/20 03:49:58;;;;;;;5.60;2.85;;;;;;;4.96;100.00;96727.63;2089318;28;20048;-54
2024/02/20 03:51:00;;;;;;;6.35;3.13;;;;;;;4.98;100.00;96727.63;2089026;28;20115;-54
2024/02/20 03:52:01;;;;;;;7.72;3.45;;;;;;;4.97;100.00;96729.34;2088962;28;20056;-54
2024/02/20 03:53:02;;;;;;;5.68;3.17;;;;;;;4.97;100.00;96724.19;2089498;28;20068;-55
2024/02/20 03:54:03;;;;;;;6.80;3.58;;;;;;;4.97;100.00;96729.34;2090136;28;20049;-54
2024/02/20 03:55:06;;;;;;;6.30;3.00;;;;;;;4.98;100.00;96728.47;2090173;28;20386;-54
2024/02/20 03:56:13;;;;;;;7.53;3.42;;;;;;;5.01;100.00;96733.56;2090286;28;20484;-54
2024/02/20 03:57:14;;;;;;;5.03;2.88;;;;;;;4.99;100.00;96730.16;2091443;28;20712;-54
2024/02/20 03:58:15;;;;;;;7.35;3.05;;;;;;;5.01;100.00;96737.88;2091451;28;20033;-54
2024/02/20 03:59:16;;;;;;;6.22;3.63;;;;;;;5.02;100.00;96734.41;2091031;28;20041;-55
2024/02/20 04:00:18;;;;;;;7.70;3.63;;;;;;;5.01;100.00;96731.00;2091367;28;20052;-55
2024/02/20 04:01:19;;;;;;;6.20;3.33;;;;;;;5.03;100.00;96738.72;2091249;28;20477;-54
2024/02/20 04:02:21;;;;;;;9.77;3.42;;;;;;;5.01;100.00;96733.56;2091320;28;20053;-54
2024/02/20 04:03:22;;;;;;;6.95;3.30;;;;;;;5.01;100.00;96738.72;2091073;28;20053;-54
2024/02/20 04:04:23;;;;;;;6.75;3.05;;;;;;;5.01;100.00;96735.28;2091201;28;20049;-54
2024/02/20 04:05:25;;;;;;;6.18;3.35;;;;;;;4.99;100.00;96737.03;2091284;28;20057;-54
2024/02/20 04:06:28;;;;;;;8.73;3.72;;;;;;;4.97;100.00;96739.66;2091478;28;20373;-54
2024/02/20 04:07:29;;;;;;;7.85;3.35;;;;;;;4.99;100.00;96742.19;2091154;28;20386;-55
2024/02/20 04:08:30;;;;;;;7.30;3.90;;;;;;;4.98;100.00;96743.06;2091367;28;20041;-54
2024/02/20 04:09:32;;;;;;;7.05;3.20;;;;;;;4.98;100.00;96741.34;2091145;28;20041;-54
2024/02/20 04:10:33;;;;;;;8.18;2.97;;;;;;;5.00;100.00;96744.75;2091182;28;20052;-54
2024/02/20 04:11:34;;;;;;;6.93;3.30;;;;;;;4.98;100.00;96743.91;2091207;28;20033;-54
2024/02/20 04:12:35;;;;;;;5.95;3.63;;;;;;;4.98;100.00;96740.50;2091218;28;20128;-54
2024/02/20 04:13:36;;;;;;;7.45;3.60;;;;;;;4.98;100.00;96746.47;2091285;28;20045;-54
2024/02/20 04:14:38;;;;;;;6.93;4.05;;;;;;;5.00;100.00;96749.91;2091244;28;20044;-54
2024/02/20 04:15:39;;;;;;;6.32;3.42;;;;;;;5.00;100.00;96744.75;2091367;28;20036;-54
2024/02/20 04:16:40;;;;;;;7.93;3.67;;;;;;;4.98;100.00;96746.47;2091726;28;20052;-55
2024/02/20 04:17:41;;;;;;;6.05;3.58;;;;;;;4.96;100.00;96749.94;2091001;28;20408;-54
2024/02/20 04:18:42;;;;;;;6.65;3.22;;;;;;;4.94;100.00;96749.09;2091253;28;20060;-54
2024/02/20 04:19:43;;;;;;;7.22;3.92;;;;;;;4.98;100.00;96751.63;2091368;28;20500;-55
2024/02/20 04:20:44;;;;;;;7.93;4.00;;;;;;;4.98;100.00;96751.63;2091181;28;20052;-54
2024/02/20 04:21:46;;;;;;;9.13;4.60;;;;;;;5.01;100.00;96761.03;2091181;28;20085;-54
2024/02/20 04:22:47;;;;;;;6.38;3.60;;;;;;;4.98;100.00;96754.22;2091194;28;20045;-54
2024/02/20 04:23:48;;;;;;;8.65;4.25;;;;;;;4.99;100.00;96750.75;2091186;28;20040;-55
2024/02/20 04:24:49;;;;;;;7.70;3.50;;;;;;;4.97;100.00;96755.09;2091330;28;20040;-56
2024/02/20 04:25:51;;;;;;;7.43;3.38;;;;;;;5.00;100.00;96755.03;2091980;28;20044;-54
2024/02/20 04:26:52;;;;;;;10.23;4.53;;;;;;;4.98;100.00;96751.63;2091599;28;20044;-55
2024/02/20 04:27:53;;;;;;;6.78;3.72;;;;;;;4.99;100.00;96755.06;2091802;28;20068;-54
2024/02/20 04:28:54;;;;;;;7.68;4.57;;;;;;;5.00;100.00;96757.63;2090495;28;20044;-54
2024/02/20 04:29:55;;;;;;;7.72;3.90;;;;;;;5.02;100.00;96760.16;2091082;28;20033;-54
2024/02/20 04:30:56;;;;;;;7.53;4.40;;;;;;;5.04;100.00;96758.41;2091202;28;20354;-54
2024/02/20 04:31:57;;;;;;;9.88;4.63;;;;;;;5.01;100.00;96761.88;2090653;28;20048;-54
2024/02/20 04:32:58;;;;;;;9.05;4.78;;;;;;;5.00;100.00;96761.91;2091133;28;20064;-54
2024/02/20 04:33:59;;;;;;;7.10;4.53;;;;;;;5.01;100.00;96771.34;2091397;28;20043;-54
2024/02/20 04:35:00;;;;;;;8.20;4.53;;;;;;;5.00;100.00;96767.91;2090745;28;20032;-54
2024/02/20 04:36:02;;;;;;;8.23;5.00;;;;;;;4.98;100.00;96761.94;2091154;28;20067;-54
2024/02/20 04:37:03;;;;;;;8.40;4.78;;;;;;;4.98;100.00;96769.66;2091372;28;20397;-54
2024/02/20 04:38:04;;;;;;;8.90;4.68;;;;;;;4.95;100.00;96767.13;2090610;28;20044;-55
2024/02/20 04:39:06;;;;;;;10.68;5.80;;;;;;;4.96;100.00;96770.53;2090795;28;20040;-55
2024/02/20 04:40:08;;;;;;;9.10;4.90;;;;;;;4.96;100.00;96767.97;2090682;28;20048;-54
2024/02/20 04:41:10;;;;;;;8.10;4.45;;;;;;;4.94;100.00;96770.53;2091018;28;20501;-55
2024/02/20 04:42:11;;;;;;;8.40;5.43;;;;;;;4.97;100.00;96775.69;2090778;28;20056;-54
2024/02/20 04:43:12;;;;;;;10.45;5.45;;;;;;;4.99;100.00;96779.06;2090978;28;20468;-54
2024/02/20 04:44:13;;;;;;;9.05;4.97;;;;;;;4.94;100.00;96770.53;2091182;28;20043;-54
2024/02/20 04:45:14;;;;;;;9.52;5.47;;;;;;;4.90;100.00;96775.78;2091041;28;20049;-54
2024/02/20 04:46:15;;;;;;;9.35;5.65;;;;;;;4.90;100.00;96784.34;2091315;28;20493;-54
2024/02/20 04:47:16;;;;;;;11.20;5.15;;;;;;;4.86;100.00;96790.38;2091254;28;20033;-54
2024/02/20 04:48:18;;;;;;;10.02;4.47;;;;;;;4.83;100.00;96786.13;2091107;28;20044;-54